Sharptown, New Jersey
Current Conditions -  °F | °C
As of 4:51 AM on Sunday 23 Nov 2014 (Local Time) from KILG Reporting Station
Broken Clouds Broken Clouds  
Wind Chill: 40°   Ceiling: 10000
Heat Index: 40°   Visibility: 10mi
Dew Point: 23°   Wind: 3mph
Humidity: 51%   Direction: 170°S
Pressure: 30.22"   Gusts: NA
Location:  39.6335°N, 75.3233°W
Report Text: KILG 230951Z AUTO 17003KT 10SM BKN100 04/M05 A3022 RMK AO2 SLP233 T00441050
Loading
Personal Weather Stations






























Interactive Weather Map New forecast layout! Learn more

10-Day Weather Forecast

Advertisements
Track Severe Weather on mobile